sensor_id;sensor_type;location;lat;lon;timestamp;P1;durP1;ratioP1;P2;durP2;ratioP2
7203;SDS011;3643;52.460;13.322;2022-12-05T04:51:32;158.97;;;38.67;;
7203;SDS011;3643;52.460;13.322;2022-12-05T04:54:03;140.97;;;36.80;;
7203;SDS011;3643;52.460;13.322;2022-12-05T04:56:38;158.43;;;39.30;;
7203;SDS011;3643;52.460;13.322;2022-12-05T04:59:10;152.03;;;38.67;;
7203;SDS011;3643;52.460;13.322;2022-12-05T05:01:40;166.90;;;39.13;;
7203;SDS011;3643;52.460;13.322;2022-12-05T05:04:15;168.03;;;38.03;;
7203;SDS011;3643;52.460;13.322;2022-12-05T05:06:49;141.30;;;35.77;;
7203;SDS011;3643;52.460;13.322;2022-12-05T05:09:17;132.30;;;35.13;;
7203;SDS011;3643;52.460;13.322;2022-12-05T05:11:46;133.43;;;35.03;;
7203;SDS011;3643;52.460;13.322;2022-12-05T05:14:17;124.87;;;36.73;;
7203;SDS011;3643;52.460;13.322;2022-12-05T05:16:45;111.57;;;34.00;;
7203;SDS011;3643;52.460;13.322;2022-12-05T05:19:15;126.30;;;34.77;;
7203;SDS011;3643;52.460;13.322;2022-12-05T05:21:44;126.60;;;34.43;;
7203;SDS011;3643;52.460;13.322;2022-12-05T05:24:15;134.83;;;36.73;;
7203;SDS011;3643;52.460;13.322;2022-12-05T05:26:44;118.07;;;33.70;;
7203;SDS011;3643;52.460;13.322;2022-12-05T05:29:20;126.90;;;34.23;;
7203;SDS011;3643;52.460;13.322;2022-12-05T05:31:50;125.63;;;35.17;;
7203;SDS011;3643;52.460;13.322;2022-12-05T05:34:19;127.43;;;33.67;;
7203;SDS011;3643;52.460;13.322;2022-12-05T05:36:50;122.10;;;33.30;;
7203;SDS011;3643;52.460;13.322;2022-12-05T05:39:20;99.40;;;32.07;;
7203;SDS011;3643;52.460;13.322;2022-12-05T05:41:52;114.77;;;32.73;;
7203;SDS011;3643;52.460;13.322;2022-12-05T05:44:22;112.73;;;32.73;;
7203;SDS011;3643;52.460;13.322;2022-12-05T05:46:53;116.67;;;34.23;;
7203;SDS011;3643;52.460;13.322;2022-12-05T05:49:22;97.47;;;31.50;;
7203;SDS011;3643;52.460;13.322;2022-12-05T05:51:51;121.70;;;33.07;;
7203;SDS011;3643;52.460;13.322;2022-12-05T05:54:21;115.93;;;32.07;;
7203;SDS011;3643;52.460;13.322;2022-12-05T05:56:50;110.50;;;31.57;;
7203;SDS011;3643;52.460;13.322;2022-12-05T05:59:19;140.90;;;33.87;;
7203;SDS011;3643;52.460;13.322;2022-12-05T06:01:48;102.40;;;30.70;;
7203;SDS011;3643;52.460;13.322;2022-12-05T06:04:20;114.00;;;30.93;;
7203;SDS011;3643;52.460;13.322;2022-12-05T06:06:48;114.43;;;32.10;;
7203;SDS011;3643;52.460;13.322;2022-12-05T06:09:17;97.90;;;30.17;;
7203;SDS011;3643;52.460;13.322;2022-12-05T06:11:50;107.27;;;29.90;;
7203;SDS011;3643;52.460;13.322;2022-12-05T06:14:19;109.70;;;28.47;;
7203;SDS011;3643;52.460;13.322;2022-12-05T06:16:48;97.77;;;31.10;;
7203;SDS011;3643;52.460;13.322;2022-12-05T06:19:19;95.37;;;29.57;;
7203;SDS011;3643;52.460;13.322;2022-12-05T06:21:48;84.00;;;28.20;;
7203;SDS011;3643;52.460;13.322;2022-12-05T06:24:19;104.60;;;29.17;;
7203;SDS011;3643;52.460;13.322;2022-12-05T06:26:48;98.80;;;28.27;;
7203;SDS011;3643;52.460;13.322;2022-12-05T06:29:19;89.63;;;28.77;;
7203;SDS011;3643;52.460;13.322;2022-12-05T06:31:52;106.17;;;29.07;;
7203;SDS011;3643;52.460;13.322;2022-12-05T06:34:27;96.57;;;28.37;;
7203;SDS011;3643;52.460;13.322;2022-12-05T06:36:58;94.60;;;27.43;;
7203;SDS011;3643;52.460;13.322;2022-12-05T06:39:27;84.03;;;27.37;;
7203;SDS011;3643;52.460;13.322;2022-12-05T06:41:55;94.00;;;27.97;;
7203;SDS011;3643;52.460;13.322;2022-12-05T06:44:25;102.00;;;28.00;;
7203;SDS011;3643;52.460;13.322;2022-12-05T06:46:54;93.30;;;26.50;;
7203;SDS011;3643;52.460;13.322;2022-12-05T06:49:23;76.80;;;26.20;;
7203;SDS011;3643;52.460;13.322;2022-12-05T06:52:03;90.57;;;26.53;;
7203;SDS011;3643;52.460;13.322;2022-12-05T06:54:32;86.87;;;26.87;;
7203;SDS011;3643;52.460;13.322;2022-12-05T06:57:01;87.83;;;27.63;;
7203;SDS011;3643;52.460;13.322;2022-12-05T06:59:31;92.53;;;27.13;;
7203;SDS011;3643;52.460;13.322;2022-12-05T07:02:00;90.40;;;27.17;;
7203;SDS011;3643;52.460;13.322;2022-12-05T07:04:28;92.90;;;27.27;;
7203;SDS011;3643;52.460;13.322;2022-12-05T07:06:57;94.60;;;27.67;;
7203;SDS011;3643;52.460;13.322;2022-12-05T07:09:28;97.93;;;27.57;;
7203;SDS011;3643;52.460;13.322;2022-12-05T07:12:10;78.50;;;25.73;;
7203;SDS011;3643;52.460;13.322;2022-12-05T07:14:42;79.97;;;25.97;;
7203;SDS011;3643;52.460;13.322;2022-12-05T07:17:14;78.00;;;27.33;;
7203;SDS011;3643;52.460;13.322;2022-12-05T07:19:43;98.43;;;28.40;;
7203;SDS011;3643;52.460;13.322;2022-12-05T07:22:13;93.30;;;28.00;;
7203;SDS011;3643;52.460;13.322;2022-12-05T07:24:42;85.27;;;28.47;;
7203;SDS011;3643;52.460;13.322;2022-12-05T07:27:11;92.13;;;27.37;;
7203;SDS011;3643;52.460;13.322;2022-12-05T07:29:42;86.93;;;26.97;;
7203;SDS011;3643;52.460;13.322;2022-12-05T07:32:10;70.43;;;26.73;;
7203;SDS011;3643;52.460;13.322;2022-12-05T07:34:39;80.13;;;26.27;;
7203;SDS011;3643;52.460;13.322;2022-12-05T07:37:07;90.37;;;26.70;;
7203;SDS011;3643;52.460;13.322;2022-12-05T07:39:36;68.37;;;25.40;;
7203;SDS011;3643;52.460;13.322;2022-12-05T07:42:05;82.50;;;27.17;;
7203;SDS011;3643;52.460;13.322;2022-12-05T07:44:34;74.17;;;25.23;;
7203;SDS011;3643;52.460;13.322;2022-12-05T07:47:04;76.67;;;24.60;;
7203;SDS011;3643;52.460;13.322;2022-12-05T07:49:33;98.33;;;25.33;;
7203;SDS011;3643;52.460;13.322;2022-12-05T07:52:02;88.00;;;25.20;;
7203;SDS011;3643;52.460;13.322;2022-12-05T07:57:00;66.90;;;25.43;;
7203;SDS011;3643;52.460;13.322;2022-12-05T07:59:28;75.80;;;24.67;;
7203;SDS011;3643;52.460;13.322;2022-12-05T08:01:57;74.27;;;24.10;;
7203;SDS011;3643;52.460;13.322;2022-12-05T08:04:27;79.87;;;25.37;;
7203;SDS011;3643;52.460;13.322;2022-12-05T08:06:56;79.33;;;24.43;;
7203;SDS011;3643;52.460;13.322;2022-12-05T08:09:24;87.40;;;26.07;;
7203;SDS011;3643;52.460;13.322;2022-12-05T08:11:53;60.67;;;24.20;;
7203;SDS011;3643;52.460;13.322;2022-12-05T08:14:21;78.77;;;25.20;;
7203;SDS011;3643;52.460;13.322;2022-12-05T08:16:51;84.43;;;25.87;;
7203;SDS011;3643;52.460;13.322;2022-12-05T08:19:19;78.60;;;25.13;;
7203;SDS011;3643;52.460;13.322;2022-12-05T08:21:49;78.37;;;25.23;;
7203;SDS011;3643;52.460;13.322;2022-12-05T08:24:20;98.30;;;25.93;;
7203;SDS011;3643;52.460;13.322;2022-12-05T08:26:50;90.63;;;25.70;;
7203;SDS011;3643;52.460;13.322;2022-12-05T08:29:19;81.73;;;24.63;;
7203;SDS011;3643;52.460;13.322;2022-12-05T08:31:49;71.63;;;23.77;;
7203;SDS011;3643;52.460;13.322;2022-12-05T08:34:19;79.57;;;25.73;;
7203;SDS011;3643;52.460;13.322;2022-12-05T08:36:47;88.20;;;24.93;;
7203;SDS011;3643;52.460;13.322;2022-12-05T08:39:18;73.93;;;25.50;;
7203;SDS011;3643;52.460;13.322;2022-12-05T08:41:47;74.27;;;23.93;;
7203;SDS011;3643;52.460;13.322;2022-12-05T08:44:16;73.93;;;24.93;;
7203;SDS011;3643;52.460;13.322;2022-12-05T08:46:46;89.53;;;27.47;;
7203;SDS011;3643;52.460;13.322;2022-12-05T08:49:16;80.80;;;26.03;;
7203;SDS011;3643;52.460;13.322;2022-12-05T08:51:45;78.10;;;25.10;;
7203;SDS011;3643;52.460;13.322;2022-12-05T08:54:16;66.03;;;23.70;;
7203;SDS011;3643;52.460;13.322;2022-12-05T08:56:45;72.77;;;23.17;;
7203;SDS011;3643;52.460;13.322;2022-12-05T08:59:18;84.87;;;25.60;;
7203;SDS011;3643;52.460;13.322;2022-12-05T09:01:48;77.93;;;24.00;;
7203;SDS011;3643;52.460;13.322;2022-12-05T09:04:18;65.80;;;24.80;;
7203;SDS011;3643;52.460;13.322;2022-12-05T09:06:46;70.93;;;24.17;;
7203;SDS011;3643;52.460;13.322;2022-12-05T09:09:16;71.40;;;25.03;;
7203;SDS011;3643;52.460;13.322;2022-12-05T09:11:45;78.37;;;24.83;;
7203;SDS011;3643;52.460;13.322;2022-12-05T09:14:16;79.93;;;24.40;;
7203;SDS011;3643;52.460;13.322;2022-12-05T09:16:46;68.97;;;24.70;;
7203;SDS011;3643;52.460;13.322;2022-12-05T09:19:15;58.83;;;22.93;;
7203;SDS011;3643;52.460;13.322;2022-12-05T09:21:46;73.60;;;23.20;;
7203;SDS011;3643;52.460;13.322;2022-12-05T09:24:15;72.80;;;23.93;;
7203;SDS011;3643;52.460;13.322;2022-12-05T09:26:45;66.83;;;23.17;;
7203;SDS011;3643;52.460;13.322;2022-12-05T09:29:14;72.10;;;23.67;;
7203;SDS011;3643;52.460;13.322;2022-12-05T09:31:44;79.10;;;24.03;;
7203;SDS011;3643;52.460;13.322;2022-12-05T09:34:14;69.30;;;23.07;;
7203;SDS011;3643;52.460;13.322;2022-12-05T09:36:45;70.07;;;23.77;;
7203;SDS011;3643;52.460;13.322;2022-12-05T09:39:37;65.67;;;22.57;;
7203;SDS011;3643;52.460;13.322;2022-12-05T09:42:27;68.43;;;23.63;;
7203;SDS011;3643;52.460;13.322;2022-12-05T09:45:09;78.23;;;23.90;;
7203;SDS011;3643;52.460;13.322;2022-12-05T09:47:48;66.07;;;23.03;;
7203;SDS011;3643;52.460;13.322;2022-12-05T09:50:24;62.10;;;23.53;;
7203;SDS011;3643;52.460;13.322;2022-12-05T10:06:57;80.03;;;23.93;;
7203;SDS011;3643;52.460;13.322;2022-12-05T10:09:50;56.10;;;20.67;;
7203;SDS011;3643;52.460;13.322;2022-12-05T10:12:51;62.77;;;22.10;;
7203;SDS011;3643;52.460;13.322;2022-12-05T10:15:35;68.80;;;22.93;;
7203;SDS011;3643;52.460;13.322;2022-12-05T10:18:26;72.77;;;23.20;;
7203;SDS011;3643;52.460;13.322;2022-12-05T10:21:01;54.60;;;21.23;;
7203;SDS011;3643;52.460;13.322;2022-12-05T10:23:37;90.10;;;27.03;;
7203;SDS011;3643;52.460;13.322;2022-12-05T10:26:28;77.43;;;24.03;;
7203;SDS011;3643;52.460;13.322;2022-12-05T10:29:06;71.17;;;23.67;;
7203;SDS011;3643;52.460;13.322;2022-12-05T10:31:50;57.50;;;22.87;;
7203;SDS011;3643;52.460;13.322;2022-12-05T10:34:26;60.03;;;21.43;;
7203;SDS011;3643;52.460;13.322;2022-12-05T10:37:00;73.27;;;24.63;;
7203;SDS011;3643;52.460;13.322;2022-12-05T10:39:38;64.80;;;23.97;;
7203;SDS011;3643;52.460;13.322;2022-12-05T10:42:08;82.80;;;26.23;;
7203;SDS011;3643;52.460;13.322;2022-12-05T10:44:40;83.50;;;26.10;;
7203;SDS011;3643;52.460;13.322;2022-12-05T10:47:09;78.37;;;25.10;;
7203;SDS011;3643;52.460;13.322;2022-12-05T10:49:39;83.97;;;27.00;;
7203;SDS011;3643;52.460;13.322;2022-12-05T10:52:13;66.00;;;22.97;;
7203;SDS011;3643;52.460;13.322;2022-12-05T10:54:45;90.83;;;27.53;;
7203;SDS011;3643;52.460;13.322;2022-12-05T10:57:29;61.87;;;23.43;;
7203;SDS011;3643;52.460;13.322;2022-12-05T11:00:11;71.03;;;24.53;;
7203;SDS011;3643;52.460;13.322;2022-12-05T11:02:42;91.80;;;27.57;;
7203;SDS011;3643;52.460;13.322;2022-12-05T11:05:16;98.67;;;27.43;;
7203;SDS011;3643;52.460;13.322;2022-12-05T11:08:08;89.93;;;26.77;;
7203;SDS011;3643;52.460;13.322;2022-12-05T11:15:21;79.50;;;26.30;;
7203;SDS011;3643;52.460;13.322;2022-12-05T11:17:55;78.30;;;27.20;;
7203;SDS011;3643;52.460;13.322;2022-12-05T11:20:47;86.37;;;27.83;;
7203;SDS011;3643;52.460;13.322;2022-12-05T11:23:23;65.73;;;24.17;;
7203;SDS011;3643;52.460;13.322;2022-12-05T11:28:59;68.40;;;24.83;;
7203;SDS011;3643;52.460;13.322;2022-12-05T11:31:29;88.50;;;26.33;;
7203;SDS011;3643;52.460;13.322;2022-12-05T12:09:19;60.43;;;21.97;;
7203;SDS011;3643;52.460;13.322;2022-12-05T12:12:23;67.90;;;24.63;;
7203;SDS011;3643;52.460;13.322;2022-12-05T12:15:52;89.23;;;28.43;;
7203;SDS011;3643;52.460;13.322;2022-12-05T12:31:38;95.10;;;28.50;;
7203;SDS011;3643;52.460;13.322;2022-12-05T12:48:14;84.17;;;27.53;;
7203;SDS011;3643;52.460;13.322;2022-12-05T12:50:51;79.87;;;28.37;;
7203;SDS011;3643;52.460;13.322;2022-12-05T13:15:50;84.73;;;28.97;;
7203;SDS011;3643;52.460;13.322;2022-12-05T13:22:19;70.63;;;25.57;;
